Time;durP1;ratioP1;P1;durP2;ratioP2;P2;SDS_P1;SDS_P2;PMS_P1;PMS_P2;Temp;Humidity;BMP_temperature;BMP_pressure;BME280_temperature;BME280_humidity;BME280_pressure;Samples;Min_cycle;Max_cycle;Signal;HPM_P1;HPM_P2
2020/12/25 00:02:08;;;;;;;10.43;3.28;;;4.70;93.60;;;;;;5016113;28;20428;-77
2020/12/25 00:04:37;;;;;;;8.02;2.30;;;4.70;93.70;;;;;;5034705;28;20474;-74
2020/12/25 00:07:04;;;;;;;8.73;2.30;;;4.70;93.80;;;;;;5033304;28;20025;-73
2020/12/25 00:09:29;;;;;;;12.27;2.53;;;4.70;93.90;;;;;;5034956;28;20067;-80
2020/12/25 00:11:55;;;;;;;7.70;2.80;;;4.60;93.90;;;;;;5034709;28;20432;-73
2020/12/25 00:14:21;;;;;;;10.07;3.47;;;4.60;93.90;;;;;;5016387;28;20056;-73
2020/12/25 00:16:46;;;;;;;11.93;2.40;;;4.60;94.00;;;;;;5034642;28;20026;-73
2020/12/25 00:19:12;;;;;;;11.32;3.30;;;4.50;94.00;;;;;;5034647;28;20034;-73
2020/12/25 00:21:37;;;;;;;12.70;3.03;;;4.50;94.10;;;;;;5016224;28;20485;-73
2020/12/25 00:24:04;;;;;;;12.90;3.05;;;4.50;94.20;;;;;;5034257;28;20029;-72
2020/12/25 00:26:31;;;;;;;9.40;2.65;;;4.50;94.10;;;;;;5016923;28;20029;-73
2020/12/25 00:28:59;;;;;;;10.30;2.95;;;4.50;94.20;;;;;;5033908;28;20021;-73
2020/12/25 00:31:29;;;;;;;9.90;2.83;;;4.40;94.20;;;;;;5034673;28;20029;-74
2020/12/25 00:33:56;;;;;;;18.75;3.65;;;4.40;94.20;;;;;;5033895;28;20030;-73
2020/12/25 00:36:23;;;;;;;10.98;3.83;;;4.30;94.30;;;;;;5033587;28;20017;-73
2020/12/25 00:38:49;;;;;;;12.00;3.10;;;4.30;94.30;;;;;;5034788;28;20033;-74
2020/12/25 00:41:14;;;;;;;14.25;2.92;;;4.30;94.30;;;;;;5034043;28;20030;-73
2020/12/25 00:43:40;;;;;;;7.28;2.40;;;4.20;94.40;;;;;;5033376;28;20025;-74
2020/12/25 00:46:13;;;;;;;12.35;2.72;;;4.20;94.40;;;;;;5033923;28;20037;-73
2020/12/25 00:48:39;;;;;;;10.05;2.80;;;4.20;94.40;;;;;;5034353;28;20021;-73
2020/12/25 00:51:04;;;;;;;13.73;2.40;;;4.20;94.40;;;;;;5033065;28;20028;-74
2020/12/25 00:53:30;;;;;;;10.63;2.50;;;4.10;94.40;;;;;;5034362;28;20021;-74
2020/12/25 00:55:55;;;;;;;10.52;2.55;;;4.10;94.30;;;;;;5015507;28;20044;-74
2020/12/25 00:58:21;;;;;;;11.25;2.60;;;4.10;94.40;;;;;;5033957;28;20104;-74
2020/12/25 01:00:46;;;;;;;9.38;2.63;;;4.10;94.40;;;;;;5015997;28;20394;-74
2020/12/25 01:03:12;;;;;;;6.82;2.35;;;4.10;94.40;;;;;;5015432;28;20475;-72
2020/12/25 01:05:39;;;;;;;8.63;2.53;;;4.00;94.50;;;;;;5033745;28;20025;-73
2020/12/25 01:08:04;;;;;;;10.82;2.63;;;4.00;94.50;;;;;;5016022;28;20021;-73
2020/12/25 01:10:30;;;;;;;6.28;2.45;;;4.00;94.50;;;;;;5032886;28;20024;-73
2020/12/25 01:12:55;;;;;;;10.35;3.03;;;4.00;94.50;;;;;;5032876;28;20083;-73
2020/12/25 01:15:21;;;;;;;12.73;3.17;;;4.00;94.50;;;;;;5033482;28;20017;-73
2020/12/25 01:17:46;;;;;;;12.70;2.72;;;4.00;94.50;;;;;;5032981;28;20026;-72
2020/12/25 01:20:12;;;;;;;6.13;1.92;;;3.90;94.50;;;;;;5015593;28;20033;-72
2020/12/25 01:22:37;;;;;;;10.45;2.35;;;3.90;94.50;;;;;;5033478;28;20053;-73
2020/12/25 01:25:03;;;;;;;9.18;2.25;;;3.90;94.50;;;;;;5032385;28;20081;-72
2020/12/25 01:27:28;;;;;;;7.20;2.08;;;3.90;94.50;;;;;;5033628;28;20378;-71
2020/12/25 01:29:54;;;;;;;8.32;2.30;;;3.90;94.60;;;;;;5033386;28;20025;-71
2020/12/25 01:32:19;;;;;;;13.35;3.55;;;3.90;94.60;;;;;;5014943;28;20478;-72
2020/12/25 01:34:45;;;;;;;13.68;3.25;;;3.90;94.60;;;;;;5033203;28;20036;-74
2020/12/25 01:37:10;;;;;;;15.45;2.92;;;3.90;94.70;;;;;;5032926;28;20018;-74
2020/12/25 01:39:36;;;;;;;10.90;3.40;;;3.90;94.70;;;;;;5032378;28;20101;-74
2020/12/25 01:42:01;;;;;;;10.52;2.28;;;3.90;94.70;;;;;;5033165;28;20079;-74
2020/12/25 01:44:27;;;;;;;15.80;3.80;;;3.90;94.60;;;;;;5033265;28;20029;-73
2020/12/25 01:46:52;;;;;;;11.15;2.55;;;3.90;94.70;;;;;;5032046;28;20068;-73
2020/12/25 01:49:18;;;;;;;11.13;2.45;;;3.90;94.70;;;;;;5033401;28;20018;-72
2020/12/25 01:51:44;;;;;;;10.48;3.20;;;3.90;94.70;;;;;;5033222;28;20033;-73
2020/12/25 01:54:10;;;;;;;8.85;2.13;;;3.90;94.60;;;;;;5032529;28;20025;-72
2020/12/25 01:56:38;;;;;;;10.65;2.40;;;3.90;94.60;;;;;;5032881;28;20049;-72
2020/12/25 01:59:03;;;;;;;16.83;2.70;;;3.90;94.60;;;;;;5032123;28;20453;-72
2020/12/25 02:01:29;;;;;;;9.35;2.38;;;3.90;94.60;;;;;;5032945;28;20049;-75
2020/12/25 02:03:55;;;;;;;5.82;2.08;;;3.90;94.50;;;;;;5015123;28;20129;-73
2020/12/25 02:06:21;;;;;;;8.25;2.60;;;3.90;94.60;;;;;;5032709;28;20057;-73
2020/12/25 02:08:46;;;;;;;11.95;2.30;;;3.90;94.60;;;;;;5032581;28;20115;-72
2020/12/25 02:11:12;;;;;;;10.80;2.65;;;3.90;94.60;;;;;;5032643;28;20125;-73
2020/12/25 02:13:38;;;;;;;10.95;2.92;;;3.90;94.50;;;;;;5031318;28;20497;-72
2020/12/25 02:16:05;;;;;;;14.40;2.20;;;3.90;94.50;;;;;;5033037;28;20041;-72
2020/12/25 02:18:37;;;;;;;12.93;2.30;;;3.90;94.50;;;;;;5032851;28;20025;-72
2020/12/25 02:21:04;;;;;;;7.15;2.08;;;3.90;94.50;;;;;;5032030;28;20045;-73
2020/12/25 02:23:30;;;;;;;10.48;2.95;;;3.90;94.60;;;;;;5032455;28;20478;-72
2020/12/25 02:25:55;;;;;;;15.13;2.20;;;3.90;94.60;;;;;;5031920;28;20036;-73
2020/12/25 02:28:21;;;;;;;5.40;1.80;;;4.00;94.50;;;;;;5031645;28;20109;-73
2020/12/25 02:30:46;;;;;;;8.55;2.10;;;4.00;94.60;;;;;;5035380;28;21552;-73
2020/12/25 02:33:12;;;;;;;10.02;1.73;;;4.00;94.50;;;;;;5036392;28;20030;-73
2020/12/25 02:35:37;;;;;;;9.40;2.00;;;4.00;94.60;;;;;;5036401;28;20116;-73
2020/12/25 02:38:03;;;;;;;6.55;2.15;;;4.10;94.60;;;;;;5036601;28;20045;-73
2020/12/25 02:40:28;;;;;;;8.40;2.65;;;4.10;94.50;;;;;;5018403;28;20504;-73
2020/12/25 02:42:54;;;;;;;9.23;2.00;;;4.20;94.30;;;;;;5035735;28;20482;-73
2020/12/25 02:45:19;;;;;;;16.83;2.47;;;4.20;94.30;;;;;;5036251;28;20176;-73
2020/12/25 02:47:45;;;;;;;8.45;2.20;;;4.30;94.20;;;;;;5018653;28;20029;-73
2020/12/25 02:50:10;;;;;;;5.35;2.08;;;4.30;94.10;;;;;;5035587;28;20485;-74
2020/12/25 02:52:36;;;;;;;8.20;2.58;;;4.30;94.00;;;;;;5018254;28;20037;-74
2020/12/25 02:55:02;;;;;;;5.35;1.70;;;4.30;94.00;;;;;;5035860;28;20022;-74
2020/12/25 02:57:27;;;;;;;9.20;2.13;;;4.20;93.90;;;;;;5035590;28;20018;-73
2020/12/25 02:59:53;;;;;;;7.05;2.20;;;4.20;94.00;;;;;;5035945;28;20048;-73
2020/12/25 03:02:18;;;;;;;9.85;2.42;;;4.10;94.00;;;;;;5036140;28;20037;-73
2020/12/25 03:04:44;;;;;;;12.27;3.85;;;4.10;94.10;;;;;;5035200;28;20060;-74
2020/12/25 03:07:11;;;;;;;8.73;1.67;;;4.10;94.50;;;;;;5018042;28;20033;-73
2020/12/25 03:09:36;;;;;;;15.95;2.35;;;4.00;94.20;;;;;;5035212;28;20557;-76
2020/12/25 03:12:02;;;;;;;8.95;1.92;;;4.00;94.20;;;;;;5035344;28;20112;-73
2020/12/25 03:14:27;;;;;;;7.45;1.90;;;4.10;94.20;;;;;;5018708;28;20022;-73
2020/12/25 03:16:53;;;;;;;6.00;1.80;;;4.00;94.20;;;;;;5035424;28;20025;-73
2020/12/25 03:19:18;;;;;;;10.85;2.10;;;4.00;94.10;;;;;;5017714;28;20429;-71
2020/12/25 03:21:44;;;;;;;13.10;2.88;;;4.00;94.10;;;;;;5036312;28;20490;-71
2020/12/25 03:24:10;;;;;;;7.63;1.65;;;4.00;94.10;;;;;;5035058;28;20052;-72
2020/12/25 03:26:35;;;;;;;7.40;1.80;;;3.90;94.20;;;;;;5035882;28;20104;-73
2020/12/25 03:29:01;;;;;;;11.40;2.15;;;4.00;94.30;;;;;;5017223;28;20029;-72
2020/12/25 03:31:26;;;;;;;6.60;1.58;;;4.00;94.30;;;;;;5034621;28;20033;-73
2020/12/25 03:33:52;;;;;;;5.57;2.05;;;4.10;94.30;;;;;;5035354;28;20018;-73
2020/12/25 03:36:17;;;;;;;14.20;2.53;;;4.10;94.10;;;;;;5035989;28;20037;-73
2020/12/25 03:38:43;;;;;;;9.45;1.95;;;4.10;94.00;;;;;;5034984;28;20033;-73
2020/12/25 03:41:08;;;;;;;7.13;1.60;;;4.20;94.00;;;;;;5034579;28;20037;-72
2020/12/25 03:43:34;;;;;;;6.65;1.90;;;4.20;94.00;;;;;;5035560;28;20076;-72
2020/12/25 03:45:59;;;;;;;5.68;1.48;;;4.20;93.90;;;;;;5034626;28;20390;-72
2020/12/25 03:48:25;;;;;;;6.07;1.73;;;4.20;93.90;;;;;;5035221;28;20100;-72
2020/12/25 03:50:51;;;;;;;3.88;1.30;;;4.30;93.80;;;;;;5035282;28;20478;-73
2020/12/25 03:53:16;;;;;;;3.13;1.33;;;4.20;93.80;;;;;;5034462;28;20021;-73
2020/12/25 03:55:42;;;;;;;7.05;1.60;;;4.20;93.80;;;;;;5035134;28;20029;-72
2020/12/25 03:58:07;;;;;;;5.88;1.50;;;4.20;93.90;;;;;;5034927;28;20021;-73
2020/12/25 04:00:33;;;;;;;7.22;1.40;;;4.20;93.90;;;;;;5034277;28;20040;-73
2020/12/25 04:02:59;;;;;;;5.15;1.23;;;4.10;93.90;;;;;;5017061;28;20017;-73
2020/12/25 04:05:24;;;;;;;2.05;1.30;;;4.10;93.90;;;;;;5017664;28;20021;-73
2020/12/25 04:07:50;;;;;;;3.75;1.23;;;4.10;93.90;;;;;;5034295;28;20033;-73
2020/12/25 04:10:15;;;;;;;6.05;1.20;;;4.10;93.90;;;;;;5034920;28;20026;-73
2020/12/25 04:12:41;;;;;;;4.63;1.10;;;4.10;93.80;;;;;;5034505;28;20378;-73
2020/12/25 04:15:06;;;;;;;3.53;0.95;;;4.00;93.90;;;;;;5015142;28;20038;-73
2020/12/25 04:17:32;;;;;;;8.23;1.40;;;4.00;93.90;;;;;;5032670;28;20500;-73
2020/12/25 04:19:57;;;;;;;4.55;1.10;;;3.90;93.80;;;;;;5033429;28;20080;-72
2020/12/25 04:22:23;;;;;;;4.65;1.55;;;3.90;93.90;;;;;;5034808;28;20044;-72
2020/12/25 04:24:48;;;;;;;3.78;1.08;;;3.80;94.00;;;;;;5034799;28;20025;-72
2020/12/25 04:27:14;;;;;;;4.32;1.23;;;3.80;94.30;;;;;;5033979;28;20060;-72
2020/12/25 04:29:39;;;;;;;5.22;1.50;;;3.70;94.10;;;;;;5034748;28;20120;-71
2020/12/25 04:32:05;;;;;;;4.57;1.30;;;3.70;94.20;;;;;;5034418;28;20385;-73
2020/12/25 04:34:30;;;;;;;6.75;1.20;;;3.60;94.30;;;;;;5032512;28;20021;-73
2020/12/25 04:36:56;;;;;;;4.50;0.98;;;3.70;94.30;;;;;;5016773;28;20415;-72
2020/12/25 04:39:22;;;;;;;4.57;1.10;;;3.70;94.30;;;;;;5034717;28;20026;-72
2020/12/25 04:41:47;;;;;;;5.93;1.10;;;3.70;94.30;;;;;;5016436;28;20044;-72
2020/12/25 04:44:13;;;;;;;3.20;1.20;;;3.70;94.30;;;;;;5016216;28;20025;-71
2020/12/25 04:46:39;;;;;;;5.25;1.73;;;3.60;94.40;;;;;;5034020;28;20132;-70
2020/12/25 04:49:07;;;;;;;6.80;1.10;;;3.70;94.40;;;;;;5015231;28;20026;-71
2020/12/25 04:51:33;;;;;;;5.13;1.10;;;3.60;94.40;;;;;;5034073;28;20018;-70
2020/12/25 04:53:59;;;;;;;5.05;0.95;;;3.70;94.40;;;;;;5033690;28;20075;-72
2020/12/25 04:56:24;;;;;;;3.85;1.17;;;3.70;94.50;;;;;;5015178;28;20036;-72
2020/12/25 04:58:51;;;;;;;2.58;1.08;;;3.70;94.50;;;;;;5034044;28;20071;-72
2020/12/25 05:01:17;;;;;;;4.78;1.00;;;3.80;94.40;;;;;;5033595;28;20033;-71
2020/12/25 05:03:44;;;;;;;4.53;1.23;;;3.90;94.30;;;;;;5033357;28;20022;-72
2020/12/25 05:06:18;;;;;;;4.63;0.98;;;3.90;94.20;;;;;;5033870;28;20079;-72
2020/12/25 05:08:47;;;;;;;5.55;1.00;;;4.00;94.20;;;;;;5033862;28;20022;-72
2020/12/25 05:11:15;;;;;;;4.00;0.98;;;4.00;94.10;;;;;;5033098;28;20355;-72
2020/12/25 05:13:48;;;;;;;4.20;1.05;;;4.00;94.00;;;;;;5033725;28;20084;-71
2020/12/25 05:16:15;;;;;;;8.18;1.10;;;4.00;94.00;;;;;;5033127;28;20480;-72
2020/12/25 05:18:47;;;;;;;5.38;1.20;;;4.00;94.00;;;;;;5033448;28;20025;-72
2020/12/25 05:21:14;;;;;;;1.92;0.70;;;4.00;94.00;;;;;;5033314;28;20526;-71
2020/12/25 05:23:40;;;;;;;2.15;0.80;;;4.00;94.00;;;;;;5033257;28;20044;-73
2020/12/25 05:26:08;;;;;;;5.60;1.10;;;4.00;94.10;;;;;;5033454;28;20033;-73
2020/12/25 05:28:45;;;;;;;3.47;0.93;;;4.00;94.20;;;;;;5032976;28;20026;-73
2020/12/25 05:31:10;;;;;;;6.47;1.45;;;4.00;94.20;;;;;;5033059;28;20075;-72
2020/12/25 05:33:37;;;;;;;4.65;1.20;;;4.00;94.20;;;;;;5033103;28;20025;-73
2020/12/25 05:36:10;;;;;;;2.92;1.08;;;4.00;94.30;;;;;;5018897;28;20026;-73
2020/12/25 05:38:37;;;;;;;5.40;1.20;;;4.00;94.30;;;;;;5003719;28;20030;-72
2020/12/25 05:41:05;;;;;;;4.18;1.02;;;4.10;94.20;;;;;;5032963;28;20061;-73
2020/12/25 05:43:31;;;;;;;2.40;1.00;;;4.10;94.10;;;;;;5015145;28;20022;-72
2020/12/25 05:45:56;;;;;;;3.70;1.33;;;4.10;94.10;;;;;;5032505;28;20029;-73
2020/12/25 05:48:22;;;;;;;5.65;1.17;;;4.10;94.10;;;;;;5015229;28;20032;-73
2020/12/25 05:50:49;;;;;;;3.30;1.00;;;4.10;94.20;;;;;;5033725;28;20128;-73
2020/12/25 05:53:15;;;;;;;1.55;1.00;;;4.00;94.10;;;;;;5032152;28;20032;-72
2020/12/25 05:55:41;;;;;;;6.93;0.95;;;4.00;94.20;;;;;;5015178;28;20120;-74
2020/12/25 05:58:10;;;;;;;8.45;2.88;;;4.00;94.30;;;;;;5033045;28;20029;-73
2020/12/25 06:00:39;;;;;;;6.93;1.27;;;3.90;94.30;;;;;;5032316;28;20044;-72
2020/12/25 06:03:07;;;;;;;2.78;1.25;;;3.90;94.40;;;;;;5015103;28;20022;-73
2020/12/25 06:05:35;;;;;;;2.50;0.93;;;3.90;94.40;;;;;;5031384;28;20042;-72
2020/12/25 06:08:10;;;;;;;4.82;1.00;;;3.90;94.50;;;;;;5015105;28;20017;-72
2020/12/25 06:10:43;;;;;;;1.48;0.80;;;3.90;94.50;;;;;;5032780;28;20057;-72
2020/12/25 06:13:15;;;;;;;10.30;1.60;;;3.90;94.60;;;;;;5031827;28;20099;-73
2020/12/25 06:15:49;;;;;;;5.65;1.30;;;3.90;94.50;;;;;;5015222;28;20017;-72
2020/12/25 06:18:40;;;;;;;5.25;1.38;;;3.90;94.50;;;;;;5032696;28;20022;-73
2020/12/25 06:21:18;;;;;;;9.05;1.83;;;3.90;94.50;;;;;;5031761;28;20474;-72
2020/12/25 06:23:43;;;;;;;6.47;1.40;;;3.90;94.50;;;;;;5032894;28;20022;-72
2020/12/25 06:26:09;;;;;;;6.40;1.95;;;3.90;94.60;;;;;;5032780;28;20106;-71
2020/12/25 06:28:40;;;;;;;6.60;1.45;;;3.90;94.60;;;;;;5032179;28;20524;-71
2020/12/25 06:31:40;;;;;;;7.13;1.30;;;3.90;94.60;;;;;;5014975;28;20030;-71
2020/12/25 06:34:06;;;;;;;11.02;2.63;;;3.90;94.60;;;;;;5014135;28;20037;-71
2020/12/25 06:36:32;;;;;;;6.80;1.52;;;3.90;94.60;;;;;;5032735;28;20366;-71
2020/12/25 06:38:58;;;;;;;7.25;1.38;;;3.90;94.60;;;;;;5031976;28;20037;-72
2020/12/25 06:41:27;;;;;;;5.32;1.55;;;4.00;94.60;;;;;;5032270;28;20041;-72
2020/12/25 06:43:56;;;;;;;5.70;1.67;;;4.00;94.50;;;;;;5014364;28;20083;-73
2020/12/25 06:46:34;;;;;;;7.78;1.60;;;4.10;94.40;;;;;;5014497;28;20052;-72
2020/12/25 06:49:08;;;;;;;4.45;1.50;;;4.10;94.30;;;;;;5031508;28;20033;-72
2020/12/25 06:51:43;;;;;;;6.68;1.80;;;4.20;94.10;;;;;;5032474;28;20033;-72
2020/12/25 06:54:21;;;;;;;10.15;2.85;;;4.20;93.90;;;;;;5032215;28;20021;-71
2020/12/25 06:56:51;;;;;;;13.40;2.92;;;4.30;93.80;;;;;;5032065;28;20017;-71
2020/12/25 06:59:18;;;;;;;8.10;1.77;;;4.30;93.70;;;;;;5032579;28;20032;-71
2020/12/25 07:01:45;;;;;;;7.68;1.88;;;4.30;93.60;;;;;;5031434;28;20060;-71
2020/12/25 07:04:26;;;;;;;7.53;1.95;;;4.40;93.50;;;;;;5032084;28;20030;-72
2020/12/25 07:06:58;;;;;;;7.35;1.52;;;4.30;93.40;;;;;;5032342;28;20025;-72
2020/12/25 07:09:40;;;;;;;7.60;1.33;;;4.40;93.40;;;;;;5031460;28;20021;-72
2020/12/25 07:12:12;;;;;;;;;;;4.40;93.40;;;;;;5015090;28;20087;-71
2020/12/25 07:14:38;;;;;;;5.80;1.58;;;4.40;93.40;;;;;;5022011;28;20003;-70
2020/12/25 07:17:03;;;;;;;6.82;1.95;;;4.30;93.30;;;;;;5017112;28;20117;-74
2020/12/25 07:19:29;;;;;;;10.00;2.08;;;4.20;93.40;;;;;;5036101;28;20033;-72
2020/12/25 07:21:54;;;;;;;9.80;2.03;;;4.20;93.50;;;;;;5017885;28;20037;-74
2020/12/25 07:24:20;;;;;;;12.13;1.58;;;4.20;93.60;;;;;;5038666;28;20021;-73
2020/12/25 07:26:54;;;;;;;7.07;1.80;;;4.20;93.70;;;;;;5023646;28;20017;-73
2020/12/25 07:29:20;;;;;;;10.50;2.10;;;4.20;93.70;;;;;;5038733;28;20405;-72
2020/12/25 07:31:46;;;;;;;7.43;1.40;;;4.20;93.80;;;;;;5036626;28;20148;-71
2020/12/25 07:34:17;;;;;;;8.75;1.77;;;4.20;93.70;;;;;;5033166;28;20038;-72
2020/12/25 07:36:43;;;;;;;6.30;1.83;;;4.30;93.60;;;;;;5006284;28;20117;-72
2020/12/25 07:39:09;;;;;;;10.20;1.70;;;4.30;93.60;;;;;;5026771;28;20581;-72
2020/12/25 07:41:35;;;;;;;6.95;1.50;;;4.20;93.50;;;;;;5029787;28;20033;-72
2020/12/25 07:44:02;;;;;;;6.93;1.70;;;4.30;93.50;;;;;;5054512;28;20114;-73
2020/12/25 07:46:29;;;;;;;5.72;1.77;;;4.20;93.60;;;;;;5036627;28;20052;-72
2020/12/25 07:48:59;;;;;;;7.95;1.60;;;4.20;93.60;;;;;;5035197;28;20076;-72
2020/12/25 07:51:25;;;;;;;5.68;1.60;;;4.10;93.70;;;;;;5034783;28;20049;-72
2020/12/25 07:53:53;;;;;;;9.82;1.92;;;4.00;93.70;;;;;;5035540;28;20363;-73
2020/12/25 07:56:21;;;;;;;6.97;1.42;;;4.00;93.80;;;;;;5032968;28;20025;-72
2020/12/25 07:58:51;;;;;;;10.18;2.33;;;3.90;93.90;;;;;;5039069;28;20025;-73
2020/12/25 08:01:24;;;;;;;10.57;1.90;;;3.90;94.00;;;;;;5021550;28;20502;-71
2020/12/25 08:03:50;;;;;;;10.07;1.65;;;4.00;94.00;;;;;;5034955;28;20065;-71
2020/12/25 08:06:19;;;;;;;5.45;1.40;;;4.00;94.00;;;;;;5034601;28;20553;-71
2020/12/25 08:08:48;;;;;;;4.18;1.55;;;4.00;94.00;;;;;;5032701;28;20021;-71
2020/12/25 08:11:16;;;;;;;3.85;1.48;;;3.90;94.10;;;;;;4997262;28;20029;-72
2020/12/25 08:13:42;;;;;;;7.70;1.70;;;3.90;94.20;;;;;;5006053;28;20565;-73
2020/12/25 08:16:08;;;;;;;9.25;3.47;;;3.90;94.20;;;;;;5034844;28;20022;-72
2020/12/25 08:18:34;;;;;;;8.45;2.50;;;3.80;94.20;;;;;;5034949;28;20116;-73
2020/12/25 08:21:01;;;;;;;9.75;2.20;;;3.80;94.40;;;;;;5033966;28;20037;-72
2020/12/25 08:23:34;;;;;;;9.75;2.08;;;3.80;94.50;;;;;;5034816;28;20026;-72
2020/12/25 08:26:02;;;;;;;372.42;25.23;;;3.80;94.50;;;;;;5023635;28;20053;-73
2020/12/25 08:28:31;;;;;;;7.40;2.03;;;3.80;94.50;;;;;;5014443;28;20029;-73
2020/12/25 08:31:17;;;;;;;6.57;1.73;;;3.80;94.60;;;;;;5014671;28;20378;-71
2020/12/25 08:34:03;;;;;;;10.65;2.17;;;3.80;95.00;;;;;;4996612;28;20022;-77
2020/12/25 08:36:28;;;;;;;9.05;1.85;;;3.80;94.60;;;;;;5014419;28;20033;-77
2020/12/25 08:38:54;;;;;;;7.57;2.30;;;3.90;94.60;;;;;;4996824;28;20022;-72
2020/12/25 08:41:25;;;;;;;11.13;2.05;;;4.00;94.70;;;;;;5014041;28;20038;-71
2020/12/25 08:43:51;;;;;;;11.10;2.38;;;4.10;94.60;;;;;;5025225;28;20022;-79
2020/12/25 08:46:21;;;;;;;5.78;1.70;;;4.20;94.50;;;;;;5034415;28;20052;-72
2020/12/25 08:48:49;;;;;;;10.88;1.98;;;4.20;94.30;;;;;;5033588;28;20025;-75
2020/12/25 08:51:16;;;;;;;11.02;1.70;;;4.20;94.30;;;;;;5033891;28;20394;-76
2020/12/25 08:53:51;;;;;;;5.22;1.58;;;4.30;94.60;;;;;;5034240;28;20024;-72
2020/12/25 08:56:21;;;;;;;7.57;2.05;;;4.40;94.20;;;;;;5020782;28;20025;-74
2020/12/25 08:58:57;;;;;;;8.65;1.73;;;4.40;94.10;;;;;;5030180;28;20526;-71
2020/12/25 09:01:23;;;;;;;8.27;2.35;;;4.40;94.10;;;;;;5025145;28;20157;-72
2020/12/25 09:03:49;;;;;;;9.35;1.95;;;4.40;94.20;;;;;;5041079;28;20029;-74
2020/12/25 09:06:15;;;;;;;14.85;2.38;;;4.40;94.20;;;;;;5038557;28;20029;-74
2020/12/25 09:08:40;;;;;;;11.43;2.28;;;4.40;94.20;;;;;;5045951;28;20025;-72
2020/12/25 09:11:14;;;;;;;8.88;2.28;;;4.50;94.20;;;;;;5014688;28;20033;-71
2020/12/25 09:13:41;;;;;;;12.00;2.45;;;4.50;94.20;;;;;;5033532;28;20433;-72
2020/12/25 09:16:07;;;;;;;9.48;1.73;;;4.60;94.20;;;;;;5013821;28;20060;-71
2020/12/25 09:18:34;;;;;;;11.52;2.20;;;4.60;94.10;;;;;;5038785;28;20052;-70
2020/12/25 09:21:00;;;;;;;8.10;1.90;;;4.60;94.20;;;;;;5038023;28;20456;-71
2020/12/25 09:23:29;;;;;;;11.63;2.53;;;4.70;94.20;;;;;;5046885;28;20021;-71
2020/12/25 09:25:55;;;;;;;16.42;2.58;;;4.80;94.20;;;;;;5053330;28;20489;-71
2020/12/25 09:28:24;;;;;;;8.95;2.17;;;4.80;94.10;;;;;;5050235;28;20025;-71
2020/12/25 09:30:53;;;;;;;10.05;3.20;;;4.90;94.00;;;;;;5032688;28;20025;-72
2020/12/25 09:33:19;;;;;;;16.77;3.50;;;4.90;93.90;;;;;;5032878;28;20504;-72
2020/12/25 09:35:45;;;;;;;9.00;2.65;;;4.90;93.90;;;;;;5033464;28;20033;-71
2020/12/25 09:38:11;;;;;;;9.07;2.75;;;4.90;94.00;;;;;;5032811;28;20105;-74
2020/12/25 09:40:36;;;;;;;13.20;2.95;;;5.00;94.10;;;;;;5033366;28;20458;-72
2020/12/25 09:43:02;;;;;;;8.38;2.90;;;5.00;94.10;;;;;;5033313;28;20421;-72
2020/12/25 09:45:27;;;;;;;12.32;3.22;;;5.10;94.10;;;;;;5015278;28;20032;-71
2020/12/25 09:47:53;;;;;;;10.20;3.10;;;5.20;94.20;;;;;;5032778;28;20126;-72
2020/12/25 09:50:18;;;;;;;14.35;3.55;;;5.30;94.40;;;;;;5014808;28;20470;-75
2020/12/25 09:52:44;;;;;;;8.52;1.85;;;5.40;93.90;;;;;;5010287;28;20029;-69
2020/12/25 09:55:09;;;;;;;10.15;2.08;;;5.50;93.60;;;;;;5033003;28;20029;-72
2020/12/25 09:57:38;;;;;;;11.85;2.47;;;5.70;93.30;;;;;;5014540;28;20473;-72
2020/12/25 10:00:12;;;;;;;12.20;2.10;;;5.70;93.00;;;;;;5013165;28;20075;-78
2020/12/25 10:02:38;;;;;;;7.88;1.83;;;5.60;92.80;;;;;;4995848;28;20034;-71
2020/12/25 10:05:07;;;;;;;9.20;2.00;;;5.60;92.80;;;;;;5013899;28;20060;-76
2020/12/25 10:07:33;;;;;;;9.02;2.30;;;5.70;92.70;;;;;;5007026;28;20017;-74
2020/12/25 10:09:59;;;;;;;9.35;2.40;;;5.60;92.50;;;;;;5012915;28;20474;-72
2020/12/25 10:12:25;;;;;;;6.20;1.85;;;5.60;92.40;;;;;;5014180;28;20466;-73
2020/12/25 10:14:50;;;;;;;6.97;1.90;;;5.70;92.50;;;;;;5015206;28;20458;-73
2020/12/25 10:17:16;;;;;;;7.05;2.00;;;5.70;92.40;;;;;;5013976;28;20076;-76
2020/12/25 10:19:42;;;;;;;6.22;1.77;;;5.80;92.30;;;;;;5014525;28;20025;-72
2020/12/25 10:22:07;;;;;;;4.35;1.52;;;5.80;92.20;;;;;;5014490;28;20060;-73
2020/12/25 10:24:33;;;;;;;9.52;2.20;;;5.80;92.40;;;;;;5014319;28;20363;-73
2020/12/25 10:26:58;;;;;;;4.78;1.70;;;5.80;92.20;;;;;;5031815;28;20025;-72
2020/12/25 10:29:24;;;;;;;6.60;1.65;;;5.80;92.40;;;;;;5032431;28;20034;-70
2020/12/25 10:31:50;;;;;;;5.10;1.40;;;5.90;92.30;;;;;;5032365;28;20039;-71
2020/12/25 10:34:16;;;;;;;24.35;2.22;;;5.90;92.30;;;;;;5013784;28;20378;-74
2020/12/25 10:36:42;;;;;;;3.38;1.30;;;6.00;92.20;;;;;;5032575;28;20445;-73
2020/12/25 10:39:11;;;;;;;6.97;1.55;;;6.00;92.00;;;;;;5014003;28;20022;-74
2020/12/25 10:41:37;;;;;;;4.88;1.20;;;6.00;92.10;;;;;;5031768;28;20033;-73
2020/12/25 10:44:03;;;;;;;5.30;1.35;;;5.90;92.10;;;;;;5031788;28;20059;-73
2020/12/25 10:46:28;;;;;;;5.55;1.50;;;5.90;92.30;;;;;;5032071;28;20045;-73
2020/12/25 10:48:54;;;;;;;3.58;1.27;;;5.90;92.10;;;;;;5013565;28;20053;-74
2020/12/25 10:51:20;;;;;;;5.20;1.38;;;5.90;91.70;;;;;;5016962;28;20500;-74
2020/12/25 10:53:47;;;;;;;5.90;1.60;;;5.80;91.70;;;;;;5034968;28;20040;-70
2020/12/25 10:56:25;;;;;;;5.13;1.10;;;5.80;92.00;;;;;;5035266;28;20112;-72
2020/12/25 10:58:52;;;;;;;7.53;3.38;;;5.80;91.90;;;;;;5036027;28;20428;-71
2020/12/25 11:01:24;;;;;;;5.50;1.30;;;5.80;91.80;;;;;;5006070;28;20395;-72
2020/12/25 11:03:50;;;;;;;5.32;1.40;;;5.80;91.60;;;;;;4998853;28;20490;-72
2020/12/25 11:06:16;;;;;;;5.60;1.10;;;5.80;91.70;;;;;;4998268;28;20030;-72
2020/12/25 11:08:42;;;;;;;5.07;1.05;;;5.80;91.70;;;;;;5019761;28;20474;-71
2020/12/25 11:11:07;;;;;;;4.25;1.38;;;5.80;91.70;;;;;;5035679;28;20087;-71
2020/12/25 11:13:34;;;;;;;5.55;1.25;;;5.80;91.10;;;;;;5032890;28;20029;-70
2020/12/25 11:15:59;;;;;;;1.50;0.90;;;5.80;91.10;;;;;;5031954;28;20465;-70
2020/12/25 11:18:25;;;;;;;4.00;1.30;;;5.90;91.20;;;;;;5035476;28;20079;-70
2020/12/25 11:20:51;;;;;;;5.70;1.17;;;6.00;91.10;;;;;;5017868;28;20084;-70
2020/12/25 11:23:16;;;;;;;6.10;1.23;;;6.00;90.60;;;;;;5034474;28;20087;-70
2020/12/25 11:25:42;;;;;;;3.90;1.20;;;6.00;90.60;;;;;;5035379;28;20508;-70
2020/12/25 11:28:07;;;;;;;5.20;1.08;;;6.00;90.50;;;;;;5017086;28;20124;-69
2020/12/25 11:30:33;;;;;;;4.35;1.55;;;6.00;90.50;;;;;;5032292;28;20124;-72
2020/12/25 11:33:00;;;;;;;8.57;1.83;;;6.10;90.60;;;;;;5029966;28;20091;-75
2020/12/25 11:35:26;;;;;;;3.70;1.10;;;6.20;90.40;;;;;;5030395;28;20080;-84
2020/12/25 11:37:51;;;;;;;2.85;1.75;;;6.20;90.40;;;;;;5000587;28;20060;-82
2020/12/25 11:40:17;;;;;;;5.30;1.30;;;6.30;90.70;;;;;;5019697;28;20093;-83
2020/12/25 11:42:45;;;;;;;6.65;2.22;;;6.30;90.60;;;;;;5018765;28;20028;-78
2020/12/25 11:45:11;;;;;;;8.63;1.63;;;6.40;90.10;;;;;;5034668;28;20026;-80
2020/12/25 11:47:36;;;;;;;7.50;1.42;;;6.40;90.40;;;;;;5033263;28;20110;-74
2020/12/25 11:50:02;;;;;;;4.82;1.33;;;6.60;90.30;;;;;;5023038;28;20026;-76
2020/12/25 11:52:32;;;;;;;4.55;1.35;;;6.50;89.30;;;;;;5029199;28;20104;-72
2020/12/25 11:54:57;;;;;;;4.13;1.73;;;6.40;89.50;;;;;;5016455;28;20391;-75
2020/12/25 11:57:23;;;;;;;2.65;1.25;;;6.40;89.80;;;;;;5016377;28;20024;-74
2020/12/25 11:59:48;;;;;;;6.70;2.47;;;6.40;90.10;;;;;;5033138;28;20018;-73
2020/12/25 12:02:14;;;;;;;6.22;1.38;;;6.40;90.10;;;;;;5033220;28;20051;-75
2020/12/25 12:04:39;;;;;;;10.32;1.77;;;6.40;90.20;;;;;;5034191;28;20034;-75
2020/12/25 12:07:05;;;;;;;5.50;1.70;;;6.40;90.10;;;;;;5032585;28;20100;-77
2020/12/25 12:09:30;;;;;;;6.63;1.63;;;6.40;90.10;;;;;;5034625;28;20466;-73
2020/12/25 12:11:56;;;;;;;6.75;1.60;;;6.40;90.30;;;;;;5015646;28;20052;-71
2020/12/25 12:14:22;;;;;;;6.38;1.98;;;6.40;90.30;;;;;;5034892;28;20013;-79
2020/12/25 12:16:51;;;;;;;5.35;1.45;;;6.50;90.40;;;;;;5016888;28;20379;-73
2020/12/25 12:19:17;;;;;;;5.50;1.75;;;6.60;90.50;;;;;;5023816;28;20477;-76
2020/12/25 12:21:42;;;;;;;7.35;1.45;;;6.70;90.50;;;;;;5015032;28;20029;-72
2020/12/25 12:24:08;;;;;;;8.00;2.03;;;6.90;90.30;;;;;;5034332;28;20033;-70
2020/12/25 12:26:33;;;;;;;5.63;1.48;;;7.00;90.00;;;;;;5025054;28;20034;-80
2020/12/25 12:28:59;;;;;;;6.07;1.80;;;7.10;90.00;;;;;;4997046;28;20030;-75
2020/12/25 12:31:25;;;;;;;5.82;1.70;;;7.30;89.70;;;;;;5015866;28;20021;-71
2020/12/25 12:33:50;;;;;;;5.50;1.77;;;7.30;88.40;;;;;;5033473;28;20136;-74
2020/12/25 12:36:16;;;;;;;6.47;1.70;;;7.40;89.00;;;;;;5016006;28;20030;-71
2020/12/25 12:38:41;;;;;;;5.53;1.30;;;7.40;88.20;;;;;;5033623;28;20108;-72
2020/12/25 12:41:07;;;;;;;7.80;1.85;;;7.40;88.40;;;;;;5032517;28;20112;-73
2020/12/25 12:43:33;;;;;;;7.22;1.50;;;7.40;88.10;;;;;;5034051;28;20029;-69
2020/12/25 12:45:58;;;;;;;7.78;1.83;;;7.50;87.70;;;;;;5031683;28;20044;-72
2020/12/25 12:48:24;;;;;;;5.18;2.03;;;7.60;87.50;;;;;;5031774;28;20049;-71
2020/12/25 12:50:50;;;;;;;3.95;1.50;;;7.70;87.50;;;;;;5032676;28;20029;-70
2020/12/25 12:53:16;;;;;;;6.30;2.25;;;7.70;86.90;;;;;;5030738;28;20509;-69
2020/12/25 12:55:41;;;;;;;4.70;1.48;;;7.80;84.80;;;;;;5032471;28;20022;-66